createdAt,value
2023-01-23T00:00:12.756Z,2.18
2023-01-23T00:04:30.658Z,2.15
2023-01-23T00:08:28.784Z,2.14
2023-01-23T00:12:26.763Z,2.12
2023-01-23T00:16:26.652Z,2.11
2023-01-23T00:20:27.668Z,2.10
2023-01-23T00:24:26.658Z,2.10
2023-01-23T00:28:24.624Z,2.10
2023-01-23T00:32:22.765Z,2.09
2023-01-23T00:36:20.591Z,2.07
2023-01-23T00:40:19.867Z,2.07
2023-01-23T00:44:17.590Z,2.06
2023-01-23T00:48:15.635Z,2.05
2023-01-23T00:52:08.807Z,2.07
2023-01-23T00:56:06.618Z,2.08
2023-01-23T01:00:04.671Z,2.08
2023-01-23T01:04:02.640Z,2.09
2023-01-23T01:08:00.626Z,2.10
2023-01-23T01:11:58.595Z,2.11
2023-01-23T01:15:56.725Z,2.10
2023-01-23T01:19:54.659Z,2.11
2023-01-23T01:23:52.659Z,2.13
2023-01-23T01:27:53.584Z,2.14
2023-01-23T01:31:51.684Z,2.15
2023-01-23T01:35:49.625Z,2.15
2023-01-23T01:39:47.619Z,2.17
2023-01-23T01:43:47.542Z,2.19
2023-01-23T01:47:45.503Z,2.20
2023-01-23T01:51:51.548Z,2.19
2023-01-23T01:55:49.491Z,2.17
2023-01-23T01:59:50.499Z,2.16
2023-01-23T02:03:48.497Z,2.16
2023-01-23T02:07:49.595Z,2.16
2023-01-23T02:11:47.898Z,2.17
2023-01-23T02:15:45.477Z,2.17
2023-01-23T02:19:46.593Z,2.18
2023-01-23T02:24:03.493Z,2.19
2023-01-23T02:28:02.432Z,2.20
2023-01-23T02:32:02.586Z,2.21
2023-01-23T02:36:02.458Z,2.21
2023-01-23T02:40:00.512Z,2.18
2023-01-23T02:43:58.467Z,2.16
2023-01-23T02:47:56.471Z,2.16
2023-01-23T02:51:54.454Z,2.16
2023-01-23T02:55:52.454Z,2.16
2023-01-23T03:00:12.530Z,2.15
2023-01-23T03:04:11.428Z,2.14
2023-01-23T03:08:09.406Z,2.14
2023-01-23T03:12:08.438Z,2.12
2023-01-23T03:16:06.452Z,2.11
2023-01-23T03:20:04.376Z,2.08
2023-01-23T03:24:02.401Z,2.08
2023-01-23T03:28:00.437Z,2.07
2023-01-23T03:31:58.401Z,2.06
2023-01-23T03:35:56.379Z,2.05
2023-01-23T03:40:11.373Z,2.04
2023-01-23T03:44:10.527Z,2.02
2023-01-23T03:48:08.446Z,2.01
2023-01-23T03:52:07.356Z,2.01
2023-01-23T03:56:05.344Z,2.00
2023-01-23T04:00:03.345Z,1.99
2023-01-23T04:04:15.416Z,2.00
2023-01-23T04:08:13.328Z,1.99
2023-01-23T04:12:12.393Z,1.99
2023-01-23T04:16:12.466Z,1.98
2023-01-23T04:20:10.398Z,1.95
2023-01-23T04:24:08.386Z,1.95
2023-01-23T04:28:06.293Z,1.96
2023-01-23T04:32:04.343Z,1.96
2023-01-23T04:36:11.293Z,1.95
2023-01-23T04:40:09.302Z,1.96
2023-01-23T04:44:28.273Z,1.94
2023-01-23T04:48:46.836Z,1.93
2023-01-23T04:52:47.290Z,1.92
2023-01-23T04:56:46.383Z,1.93
2023-01-23T05:00:44.355Z,1.91
2023-01-23T05:04:22.986Z,1.91
2023-01-23T05:07:48.817Z,1.92
2023-01-23T05:11:13.574Z,1.94
2023-01-23T05:14:38.413Z,1.95
2023-01-23T05:18:02.562Z,1.96
2023-01-23T05:21:26.861Z,1.95
2023-01-23T05:24:51.293Z,1.96
2023-01-23T05:28:15.205Z,1.95
2023-01-23T05:31:44.115Z,1.95
2023-01-23T05:35:31.139Z,1.96
2023-01-23T05:38:56.108Z,1.97
2023-01-23T05:42:21.296Z,1.98
2023-01-23T05:45:57.044Z,1.98
2023-01-23T05:49:25.643Z,1.96
2023-01-23T05:52:49.579Z,1.96
2023-01-23T05:56:14.420Z,1.95
2023-01-23T06:00:01.453Z,1.95
2023-01-23T06:03:38.668Z,1.94
2023-01-23T06:07:21.540Z,1.92
2023-01-23T06:10:48.537Z,1.92
2023-01-23T06:14:13.120Z,1.92
2023-01-23T06:17:37.130Z,1.93
2023-01-23T06:21:02.334Z,1.94
2023-01-23T06:24:26.383Z,1.94
2023-01-23T06:27:50.939Z,1.94
2023-01-23T06:31:15.282Z,1.96
2023-01-23T06:34:54.245Z,1.99
2023-01-23T06:38:18.028Z,2.00
2023-01-23T06:41:44.574Z,2.00
2023-01-23T06:45:12.747Z,2.00
2023-01-23T06:48:36.976Z,2.00
2023-01-23T06:52:00.861Z,2.00
2023-01-23T06:55:25.532Z,2.02
2023-01-23T06:58:50.420Z,2.04
2023-01-23T07:02:21.494Z,2.05
2023-01-23T07:05:47.761Z,2.07
2023-01-23T07:09:12.551Z,2.09
2023-01-23T07:12:37.969Z,2.10
2023-01-23T07:16:03.666Z,2.10
2023-01-23T07:19:28.024Z,2.10
2023-01-23T07:22:52.441Z,2.11
2023-01-23T07:26:16.171Z,2.15
2023-01-23T07:29:40.240Z,2.15
2023-01-23T07:33:04.729Z,2.16
2023-01-23T07:36:29.126Z,2.16
2023-01-23T07:39:53.717Z,2.16
2023-01-23T07:43:17.598Z,2.18
2023-01-23T07:46:41.625Z,2.20
2023-01-23T07:50:05.721Z,2.22
2023-01-23T07:53:29.465Z,2.24
2023-01-23T07:56:53.267Z,2.28
2023-01-23T08:00:17.719Z,2.31
2023-01-23T08:03:41.940Z,2.31
2023-01-23T08:07:05.945Z,2.31
2023-01-23T08:10:32.084Z,2.32
2023-01-23T08:13:56.090Z,2.32
2023-01-23T08:17:20.174Z,2.35
2023-01-23T08:20:44.061Z,2.39
2023-01-23T08:24:08.551Z,2.44
2023-01-23T08:27:32.324Z,2.50
2023-01-23T08:30:57.372Z,2.55
2023-01-23T08:34:21.853Z,2.57
2023-01-23T08:37:45.805Z,2.58
2023-01-23T08:41:11.997Z,2.61
2023-01-23T08:44:36.022Z,2.60
2023-01-23T08:48:00.325Z,2.57
2023-01-23T08:51:25.297Z,2.58
2023-01-23T08:54:49.103Z,2.58
2023-01-23T08:58:13.735Z,2.63
2023-01-23T09:01:37.883Z,2.63
2023-01-23T09:05:01.795Z,2.61
2023-01-23T09:08:25.720Z,2.60
2023-01-23T09:11:49.725Z,2.59
2023-01-23T09:15:13.721Z,2.56
2023-01-23T09:18:38.124Z,2.56
2023-01-23T09:22:01.980Z,2.57
2023-01-23T09:25:25.781Z,2.60
2023-01-23T09:28:51.165Z,2.61
2023-01-23T09:32:14.948Z,2.61
2023-01-23T09:35:38.848Z,2.62
2023-01-23T09:39:03.748Z,2.63
2023-01-23T09:42:32.937Z,2.66
2023-01-23T09:46:09.326Z,2.68
2023-01-23T09:49:45.881Z,2.73
2023-01-23T09:53:14.068Z,2.78
2023-01-23T09:56:41.807Z,2.82
2023-01-23T10:00:15.045Z,2.84
2023-01-23T10:03:39.323Z,2.84
2023-01-23T10:07:03.850Z,2.85
2023-01-23T10:10:46.463Z,2.83
2023-01-23T10:14:13.081Z,2.82
2023-01-23T10:17:42.736Z,2.84
2023-01-23T10:21:14.014Z,2.88
2023-01-23T10:24:40.472Z,2.92
2023-01-23T10:28:23.510Z,2.95
2023-01-23T10:31:51.426Z,2.96
2023-01-23T10:35:22.210Z,2.96
2023-01-23T10:38:48.887Z,2.98
2023-01-23T10:42:14.183Z,3.00
2023-01-23T10:45:38.971Z,3.00
2023-01-23T10:49:03.606Z,3.01
2023-01-23T10:52:32.840Z,3.05
2023-01-23T10:55:59.761Z,3.05
2023-01-23T10:59:27.875Z,3.05
2023-01-23T11:02:51.950Z,3.06
2023-01-23T11:06:19.272Z,3.09
2023-01-23T11:09:47.507Z,3.10
2023-01-23T11:13:22.585Z,3.11
2023-01-23T11:16:46.770Z,3.13
2023-01-23T11:20:24.716Z,3.18
2023-01-23T11:23:48.861Z,3.17
2023-01-23T11:27:19.503Z,3.20
2023-01-23T11:30:43.681Z,3.21
2023-01-23T11:34:15.250Z,3.22
2023-01-23T11:37:41.090Z,3.23
2023-01-23T11:41:05.801Z,3.21
2023-01-23T11:44:38.049Z,3.21
2023-01-23T11:48:35.329Z,3.19
2023-01-23T11:52:18.234Z,3.21
2023-01-23T11:55:51.572Z,3.22
2023-01-23T11:59:24.330Z,3.26
2023-01-23T12:03:03.430Z,3.27
2023-01-23T12:06:35.752Z,3.29
2023-01-23T12:09:59.559Z,3.27
2023-01-23T12:13:38.868Z,3.28
2023-01-23T12:17:08.907Z,3.29
2023-01-23T12:20:35.976Z,3.29
2023-01-23T12:24:19.024Z,3.27
2023-01-23T12:27:44.686Z,3.25
2023-01-23T12:31:23.686Z,3.26
2023-01-23T12:35:06.230Z,3.26
2023-01-23T12:38:38.512Z,3.26
2023-01-23T12:42:05.666Z,3.26
2023-01-23T12:45:30.796Z,3.26
2023-01-23T12:48:59.573Z,3.26
2023-01-23T12:52:42.202Z,3.25
2023-01-23T12:56:08.946Z,3.26
2023-01-23T12:59:42.550Z,3.25
2023-01-23T13:03:25.883Z,3.24
2023-01-23T13:07:03.274Z,3.25
2023-01-23T13:11:02.320Z,3.24
2023-01-23T13:14:43.462Z,3.26
2023-01-23T13:18:28.470Z,3.26
2023-01-23T13:22:19.023Z,3.26
2023-01-23T13:25:50.414Z,3.27
2023-01-23T13:29:34.249Z,3.28
2023-01-23T13:33:04.075Z,3.28
2023-01-23T13:36:29.793Z,3.28
2023-01-23T13:40:15.600Z,3.25
2023-01-23T13:43:44.251Z,3.24
2023-01-23T14:22:15.111Z,3.25
2023-01-23T14:25:38.925Z,3.27
2023-01-23T14:29:02.701Z,3.27
2023-01-23T14:32:39.889Z,3.24
2023-01-23T14:36:23.942Z,3.23
2023-01-23T14:40:11.741Z,3.23
2023-01-23T14:43:50.922Z,3.23
2023-01-23T14:47:32.811Z,3.22
2023-01-23T14:51:10.828Z,3.22
2023-01-23T14:54:53.833Z,3.21
2023-01-23T14:58:31.990Z,3.19
2023-01-23T15:02:20.269Z,3.17
2023-01-23T15:06:01.925Z,3.16
2023-01-23T15:09:38.702Z,3.16
2023-01-23T15:13:23.173Z,3.16
2023-01-23T15:16:59.733Z,3.15
2023-01-23T15:20:50.753Z,3.14
2023-01-23T15:24:41.771Z,3.13
2023-01-23T15:28:32.630Z,3.12
2023-01-23T15:32:23.715Z,3.11
2023-01-23T15:36:14.653Z,3.12
2023-01-23T15:40:09.672Z,3.12
2023-01-23T15:44:00.746Z,3.11
2023-01-23T15:47:52.520Z,3.11
2023-01-23T15:51:43.661Z,3.11
2023-01-23T15:55:34.709Z,3.11
2023-01-23T15:59:18.860Z,3.11
2023-01-23T16:02:57.288Z,3.10
2023-01-23T16:06:34.736Z,3.10
2023-01-23T16:10:11.625Z,3.10
2023-01-23T16:13:48.756Z,3.10
2023-01-23T16:17:25.754Z,3.09
2023-01-23T16:21:02.711Z,3.08
2023-01-23T16:24:39.819Z,3.08
2023-01-23T16:28:10.245Z,3.07
2023-01-23T16:31:53.710Z,3.07
2023-01-23T16:35:24.122Z,3.08
2023-01-23T16:39:07.572Z,3.08
2023-01-23T16:42:39.001Z,3.07
2023-01-23T16:46:22.623Z,3.07
2023-01-23T16:49:54.221Z,3.06
2023-01-23T16:53:38.637Z,3.05
2023-01-23T16:57:09.226Z,3.05
2023-01-23T17:00:59.559Z,3.05
2023-01-23T17:04:50.505Z,3.05
2023-01-23T17:08:41.513Z,3.04
2023-01-23T17:12:34.531Z,3.02
2023-01-23T17:16:27.666Z,3.01
2023-01-23T17:20:18.605Z,3.01
2023-01-23T17:24:09.605Z,3.00
2023-01-23T17:28:12.339Z,2.98
2023-01-23T17:32:03.578Z,2.97
2023-01-23T17:35:54.503Z,2.96
2023-01-23T17:39:45.559Z,2.98
2023-01-23T17:43:36.555Z,2.99
2023-01-23T17:47:27.811Z,2.98
2023-01-23T17:51:21.566Z,2.97
2023-01-23T17:55:12.548Z,2.96
2023-01-23T17:58:56.625Z,2.96
2023-01-23T18:02:33.589Z,2.96
2023-01-23T18:06:10.601Z,2.96
2023-01-23T18:09:54.442Z,2.97
2023-01-23T18:13:45.431Z,2.97
2023-01-23T18:17:37.437Z,2.97
2023-01-23T18:21:28.523Z,2.96
2023-01-23T18:25:20.050Z,2.97
2023-01-23T18:29:11.571Z,2.98
2023-01-23T18:33:02.443Z,2.97
2023-01-23T18:36:53.395Z,2.97
2023-01-23T18:40:44.419Z,2.96
2023-01-23T18:44:35.367Z,2.96
2023-01-23T18:48:26.392Z,2.97
2023-01-23T18:52:17.398Z,2.97
2023-01-23T18:56:08.404Z,2.96
2023-01-23T18:59:54.639Z,2.95
2023-01-23T19:03:32.622Z,2.95
2023-01-23T19:07:09.572Z,2.94
2023-01-23T19:10:49.143Z,2.95
2023-01-23T19:14:26.614Z,2.96
2023-01-23T19:18:03.348Z,2.95
2023-01-23T19:21:47.668Z,2.95
2023-01-23T19:25:26.440Z,2.94
2023-01-23T19:29:19.258Z,2.94
2023-01-23T19:32:57.291Z,2.95
2023-01-23T19:36:34.642Z,2.94
2023-01-23T19:40:11.390Z,2.94
2023-01-23T19:43:48.418Z,2.92
2023-01-23T19:47:25.312Z,2.92
2023-01-23T19:51:02.696Z,2.92
2023-01-23T19:54:39.373Z,2.92
2023-01-23T19:58:32.176Z,2.91
2023-01-23T20:02:25.440Z,2.90
2023-01-23T20:05:56.203Z,2.90
2023-01-23T20:09:40.403Z,2.90
2023-01-23T20:13:12.550Z,2.91
2023-01-23T20:16:56.268Z,2.91
2023-01-23T20:20:47.427Z,2.91
2023-01-23T20:24:38.273Z,2.91
2023-01-23T20:28:22.404Z,2.91
2023-01-23T20:31:59.721Z,2.90
2023-01-23T20:35:38.493Z,2.89
2023-01-23T20:39:15.356Z,2.89
2023-01-23T20:42:54.351Z,2.88
2023-01-23T20:46:31.286Z,2.88
2023-01-23T20:50:08.454Z,2.87
2023-01-23T20:53:46.222Z,2.88
2023-01-23T20:57:23.308Z,2.87
2023-01-23T21:01:00.235Z,2.88
2023-01-23T21:04:52.237Z,2.88
2023-01-23T21:08:43.262Z,2.88
2023-01-23T21:12:34.263Z,2.88
2023-01-23T21:16:30.002Z,2.88
2023-01-23T21:20:21.215Z,2.88
2023-01-23T21:24:12.248Z,2.87
2023-01-23T21:28:03.132Z,2.88
2023-01-23T21:31:54.410Z,2.87
2023-01-23T21:35:45.275Z,2.88
2023-01-23T21:39:37.318Z,2.89
2023-01-23T21:43:28.199Z,2.89
2023-01-23T21:47:20.234Z,2.88
2023-01-23T21:51:11.149Z,2.88
2023-01-23T21:55:02.165Z,2.89
2023-01-23T21:58:55.107Z,2.88
2023-01-23T22:02:46.322Z,2.88
2023-01-23T22:06:37.206Z,2.87
2023-01-23T22:10:28.222Z,2.87
2023-01-23T22:14:21.136Z,2.87
2023-01-23T22:18:12.106Z,2.88
2023-01-23T22:22:04.057Z,2.88
2023-01-23T22:25:55.102Z,2.88
2023-01-23T22:29:46.151Z,2.88
2023-01-23T22:33:40.940Z,2.89
2023-01-23T22:37:32.172Z,2.89
2023-01-23T22:41:23.089Z,2.89
2023-01-23T22:45:14.051Z,2.90
2023-01-23T22:49:05.324Z,2.91
2023-01-23T22:52:56.021Z,2.92
2023-01-23T22:56:47.196Z,2.93
2023-01-23T23:00:38.227Z,2.94
2023-01-23T23:04:29.232Z,2.96
2023-01-23T23:08:20.088Z,2.97
2023-01-23T23:12:11.109Z,2.98
2023-01-23T23:16:02.119Z,3.01
2023-01-23T23:19:53.032Z,3.01
2023-01-23T23:23:44.033Z,3.02
2023-01-23T23:27:35.103Z,3.02
2023-01-23T23:31:27.155Z,3.02
2023-01-23T23:35:17.968Z,3.03
2023-01-23T23:39:09.011Z,3.03
2023-01-23T23:43:00.077Z,3.03
2023-01-23T23:46:50.964Z,3.04
2023-01-23T23:50:42.083Z,3.05
2023-01-23T23:54:32.959Z,3.06
2023-01-23T23:58:24.005Z,3.08
